KPDX/PDX METAR and TAF weather

Enter ICAO airport designator
Station Type Date Time Source
KPDX METAR 2019/08/25 19:53 UTC NOAA

KPDX 251953Z 28008KT 10SM SCT041 23/11 A3018 RMK AO2 SLP219 T02280106 $


Station Type Date Time Source
KPDX Decoded METAR 2019/08/25 19:53 UTC NOAA

Station name not available
Aug 25, 2019 - 03:53 PM EDT / 2019.08.25 1953 UTC
Wind: from the W (280 degrees) at 9 MPH (8 KT):0
Visibility: 10 mile(s):0
Sky conditions: partly cloudy
Temperature: 73.0 F (22.8 C)
Dew Point: 51.1 F (10.6 C)
Relative Humidity: 46%
Pressure (altimeter): 30.18 in. Hg (1022 hPa)
ob: KPDX 251953Z 28008KT 10SM SCT041 23/11 A3018 RMK AO2 SLP219 T02280106
cycle: 20

Station Type Date Time Source
KPDX TAF 2019/08/25 18:40 UTC NOAA

TAF KPDX 251738Z 2518/2618 30005KT P6SM FEW025 SCT050
FM252200 32010KT P6SM FEW050
FM260900 VRB05KT P6SM SKC
FM261400 VRB03KT P6SM SCT025

Example: see airport list